Search for airport 
image banner adimage banner adimage banner ad
image banner ad

CA79 - The Ritz-Carlton Hotel Company

Located in Marina Del Rey, United States

ICAO - CA79, IATA -

Data provided by Airmate  

General information

Coordinates: N33°59'4" W118°27'0"
Elevation is 50 feet MSL.
Magnetic variation is 14° East
View others Airports in California

Operational data

Special qualification required
Current time UTC:
Current local time:
Weather at : KSMO - Santa Monica Muni ( 3 km )
METAR: KSMO 270451Z AUTO 27004KT 10SM OVC009 18/16 A2998 RMK AO2 SLP152 T01830161
TAF: KSMO 270302Z 2703/2724 VRB03KT P6SM OVC010 FM270800 VRB03KT P6SM OVC008 FM271600 VRB03KT P6SM BKN012 FM271800 24009KT P6SM SKC
View NOTAMs / SUP AIP / TFR affecting this airport [VIEW]
Communications frequencies: [VIEW]

Runways:

Airport contact information

Address: Marina Del Rey United States

Satellite view of CA79